createdAt,value
2023-03-05T00:02:19.311Z,5.5
2023-03-05T00:07:56.700Z,5.4
2023-03-05T00:13:49.851Z,5.4
2023-03-05T00:19:41.744Z,5.4
2023-03-05T00:24:48.581Z,5.4
2023-03-05T00:30:43.287Z,5.4
2023-03-05T00:36:35.980Z,5.4
2023-03-05T00:42:29.616Z,5.4
2023-03-05T00:48:22.894Z,5.4
2023-03-05T00:54:15.538Z,5.4
2023-03-05T01:00:08.254Z,5.4
2023-03-05T01:06:01.817Z,5.4
2023-03-05T01:11:53.757Z,5.4
2023-03-05T01:17:31.174Z,5.3
2023-03-05T01:23:23.661Z,5.4
2023-03-05T01:29:00.485Z,5.3
2023-03-05T01:34:23.970Z,5.3
2023-03-05T01:40:17.886Z,5.3
2023-03-05T01:46:10.601Z,5.3
2023-03-05T01:51:48.345Z,5.3
2023-03-05T01:57:41.472Z,5.3
2023-03-05T02:03:34.487Z,5.3
2023-03-05T02:09:11.146Z,5.3
2023-03-05T02:14:48.648Z,5.3
2023-03-05T02:20:25.452Z,5.3
2023-03-05T02:26:17.805Z,5.3
2023-03-05T02:31:39.381Z,5.3
2023-03-05T02:37:31.914Z,5.3
2023-03-05T02:43:24.796Z,5.3
2023-03-05T02:49:17.212Z,5.2
2023-03-05T02:55:10.361Z,5.2
2023-03-05T03:01:03.549Z,5.1
2023-03-05T03:06:56.784Z,5.1
2023-03-05T03:12:18.725Z,5.1
2023-03-05T03:17:56.828Z,5.1
2023-03-05T03:23:49.041Z,5.1
2023-03-05T03:29:26.749Z,5.1
2023-03-05T03:35:04.013Z,5
2023-03-05T03:40:41.394Z,4.9
2023-03-05T03:46:34.004Z,4.9
2023-03-05T03:52:10.299Z,4.9
2023-03-05T03:58:02.313Z,4.9
2023-03-05T04:03:55.395Z,4.8
2023-03-05T04:09:46.703Z,4.8
2023-03-05T04:15:39.767Z,4.8
2023-03-05T04:21:02.021Z,4.7
2023-03-05T04:26:54.275Z,4.6
2023-03-05T04:32:46.966Z,4.6
2023-03-05T04:38:40.401Z,4.5
2023-03-05T04:44:32.464Z,4.5
2023-03-05T04:50:24.605Z,4.4
2023-03-05T04:56:17.066Z,4.4
2023-03-05T05:01:40.391Z,4.4
2023-03-05T05:07:17.354Z,4.4
2023-03-05T05:13:10.022Z,4.4
2023-03-05T05:19:03.297Z,4.4
2023-03-05T05:24:56.178Z,4.4
2023-03-05T05:30:48.676Z,4.4
2023-03-05T05:36:41.912Z,4.5
2023-03-05T05:42:34.785Z,4.6
2023-03-05T05:48:27.907Z,4.7
2023-03-05T05:54:21.605Z,5
2023-03-05T05:59:58.162Z,5.4
2023-03-05T06:05:53.921Z,5.9
2023-03-05T06:11:46.405Z,6.4
2023-03-05T06:17:47.914Z,7
2023-03-05T06:23:40.604Z,7.6
2023-03-05T06:29:33.324Z,8.2
2023-03-05T06:35:25.973Z,8.8
2023-03-05T06:41:18.726Z,9.4
2023-03-05T06:47:11.999Z,9.9
2023-03-05T06:52:49.358Z,10.4
2023-03-05T06:58:43.094Z,11
2023-03-05T07:04:36.410Z,11.8
2023-03-05T07:10:29.060Z,13.2
2023-03-05T07:16:24.366Z,15.3
2023-03-05T07:22:17.176Z,18.8
2023-03-05T07:28:09.827Z,22.8
2023-03-05T07:34:03.715Z,26.4
2023-03-05T07:39:56.449Z,27.9
2023-03-05T07:45:34.422Z,29.8
2023-03-05T07:51:27.619Z,29.1
2023-03-05T07:57:05.905Z,28.9
2023-03-05T08:02:59.694Z,30
2023-03-05T08:08:53.606Z,31.9
2023-03-05T08:14:46.712Z,31.9
2023-03-05T08:20:40.015Z,32.1
2023-03-05T08:26:17.623Z,32.5
2023-03-05T08:32:12.040Z,32.6
2023-03-05T08:38:05.910Z,35
2023-03-05T08:43:59.990Z,38.3
2023-03-05T08:49:53.000Z,43.8
2023-03-05T08:55:46.011Z,47.8
2023-03-05T09:01:38.859Z,46.9
2023-03-05T09:07:17.073Z,44.6
2023-03-05T09:13:09.453Z,42.8
2023-03-05T09:19:02.744Z,42.8
2023-03-05T09:24:56.347Z,41.3
2023-03-05T09:30:49.745Z,39.6
2023-03-05T09:36:43.712Z,37.6
2023-03-05T09:42:36.884Z,36.1
2023-03-05T09:48:30.213Z,34.6
2023-03-05T09:54:22.801Z,33.6
2023-03-05T10:00:15.120Z,32.6
2023-03-05T10:06:07.903Z,32
2023-03-05T10:12:00.053Z,31.9
2023-03-05T10:17:53.509Z,32.6
2023-03-05T10:23:16.062Z,33
2023-03-05T10:29:07.860Z,32.6
2023-03-05T10:35:02.128Z,32.3
2023-03-05T10:40:55.887Z,31.8
2023-03-05T10:46:48.882Z,32.4
2023-03-05T10:52:42.589Z,34.7
2023-03-05T10:58:19.614Z,39.7
2023-03-05T11:04:13.258Z,44.4
2023-03-05T11:10:08.664Z,45.8
2023-03-05T11:15:46.817Z,51.2
2023-03-05T11:21:41.756Z,50.1
2023-03-05T11:27:36.956Z,41.5
2023-03-05T11:33:37.027Z,38.4
2023-03-05T11:39:14.426Z,38.4
2023-03-05T11:45:09.377Z,40.6
2023-03-05T11:51:03.553Z,44.8
2023-03-05T11:56:57.590Z,47.4
2023-03-05T12:02:53.639Z,53
2023-03-05T12:08:31.665Z,47.1
2023-03-05T12:14:24.913Z,41.3
2023-03-05T12:20:19.113Z,39.1
2023-03-05T12:25:40.826Z,42.3
2023-03-05T12:31:36.922Z,45.3
2023-03-05T12:37:35.625Z,48.3
2023-03-05T12:43:47.192Z,45.2
2023-03-05T12:49:25.871Z,42.6
2023-03-05T12:55:03.848Z,42.5
2023-03-05T13:00:43.185Z,41.6
2023-03-05T13:06:21.059Z,39.3
2023-03-05T13:12:14.779Z,38.3
2023-03-05T13:18:09.029Z,36.5
2023-03-05T13:24:02.656Z,35.1
2023-03-05T13:29:56.506Z,33.8
2023-03-05T13:35:59.510Z,32
2023-03-05T13:41:54.460Z,30.2
2023-03-05T13:47:47.664Z,28.4
2023-03-05T13:53:41.462Z,27.1
2023-03-05T13:59:37.831Z,26.2
2023-03-05T14:05:36.465Z,25.3
2023-03-05T14:11:29.272Z,24.1
2023-03-05T14:17:06.739Z,23.1
2023-03-05T14:22:29.465Z,21.9
2023-03-05T14:28:31.226Z,20.6
2023-03-05T14:34:24.625Z,19.4
2023-03-05T14:40:04.305Z,18.4
2023-03-05T14:45:41.430Z,17.6
2023-03-05T14:51:01.901Z,16.8
2023-03-05T14:56:39.338Z,16.1
2023-03-05T15:02:34.650Z,15.4
2023-03-05T15:08:28.076Z,14.8
2023-03-05T15:14:20.616Z,14.1
2023-03-05T15:20:13.870Z,13.6
2023-03-05T15:25:36.573Z,13.2
2023-03-05T15:31:17.752Z,12.7
2023-03-05T15:36:24.435Z,12.3
2023-03-05T15:42:01.299Z,11.9
2023-03-05T15:47:39.117Z,11.5
2023-03-05T15:53:18.129Z,11.1
2023-03-05T15:58:54.966Z,10.8
2023-03-05T16:04:32.028Z,10.4
2023-03-05T16:10:10.780Z,10.1
2023-03-05T16:15:49.334Z,9.8
2023-03-05T16:21:26.875Z,9.5
2023-03-05T16:27:03.844Z,9.2
2023-03-05T16:32:41.240Z,8.9
2023-03-05T16:38:03.613Z,8.8
2023-03-05T16:44:05.881Z,8.4
2023-03-05T16:49:28.534Z,8.2
2023-03-05T16:55:10.888Z,7.9
2023-03-05T17:00:54.974Z,7.8
2023-03-05T17:06:31.497Z,7.6
2023-03-05T17:12:10.345Z,7.4
2023-03-05T17:17:48.367Z,7.2
2023-03-05T17:23:27.622Z,7
2023-03-05T17:29:05.479Z,6.8
2023-03-05T17:34:53.815Z,6.7
2023-03-05T17:40:30.318Z,6.6
2023-03-05T17:46:23.486Z,6.4
2023-03-05T17:52:00.872Z,6.3
2023-03-05T17:57:54.692Z,6.1
2023-03-05T18:03:47.631Z,6
2023-03-05T18:09:25.523Z,5.8
2023-03-05T18:15:03.049Z,5.7
2023-03-05T18:20:59.471Z,5.6
2023-03-05T18:26:52.640Z,5.4
2023-03-05T18:32:44.353Z,5.3
2023-03-05T18:38:37.873Z,5.2
2023-03-05T18:44:20.740Z,5.1
2023-03-05T18:49:58.796Z,5
2023-03-05T18:55:51.680Z,4.9
2023-03-05T19:01:44.636Z,4.8
2023-03-05T19:07:38.440Z,4.7
2023-03-05T19:13:15.977Z,4.6
2023-03-05T19:18:55.036Z,4.5
2023-03-05T19:24:47.489Z,4.4
2023-03-05T19:30:39.495Z,4.3
2023-03-05T19:36:33.567Z,4.3
2023-03-05T19:42:26.392Z,4.2
2023-03-05T19:48:20.263Z,4.1
2023-03-05T19:54:16.660Z,3.9
2023-03-05T19:59:23.560Z,3.8
2023-03-05T20:05:17.751Z,3.6
2023-03-05T20:10:56.214Z,3.4
2023-03-05T20:16:49.868Z,3.3
2023-03-05T20:22:43.466Z,3.1
2023-03-05T20:28:41.136Z,2.9
2023-03-05T20:34:22.659Z,2.8
2023-03-05T20:40:17.066Z,2.6
2023-03-05T20:45:55.484Z,2.5
2023-03-05T20:51:33.717Z,2.4
2023-03-05T20:57:12.689Z,2.3
2023-03-05T21:02:35.861Z,2.1
2023-03-05T21:07:42.906Z,1.9
2023-03-05T21:13:21.453Z,1.9
2023-03-05T21:19:14.958Z,1.8
2023-03-05T21:24:55.013Z,1.8
2023-03-05T21:30:32.494Z,1.8
2023-03-05T21:36:28.704Z,1.7
2023-03-05T21:42:05.447Z,1.7
2023-03-05T21:47:59.051Z,1.6
2023-03-05T21:53:51.046Z,1.6
2023-03-05T21:59:43.507Z,1.5
2023-03-05T22:05:20.782Z,1.4
2023-03-05T22:10:58.020Z,1.4
2023-03-05T22:16:51.124Z,1.3
2023-03-05T22:22:28.954Z,1.2
2023-03-05T22:28:21.591Z,1.1
2023-03-05T22:33:58.758Z,1
2023-03-05T22:39:52.414Z,0.9
2023-03-05T22:45:13.828Z,0.8
2023-03-05T22:51:06.434Z,0.8
2023-03-05T22:56:58.556Z,0.6
2023-03-05T23:02:05.175Z,0.6
2023-03-05T23:07:58.641Z,0.6
2023-03-05T23:13:51.600Z,0.4
2023-03-05T23:19:12.990Z,0.3
2023-03-05T23:24:50.277Z,0.2
2023-03-05T23:30:27.924Z,0.1
2023-03-05T23:36:05.549Z,0.1
2023-03-05T23:41:27.852Z,0.1
2023-03-05T23:47:05.329Z,0
2023-03-05T23:52:59.992Z,-0.1
2023-03-05T23:58:23.525Z,-0.1
